Time;durP1;ratioP1;P1;durP2;ratioP2;P2;SDS_P1;SDS_P2;PMS_P1;PMS_P2;Temp;Humidity;BMP_temperature;BMP_pressure;BME280_temperature;BME280_humidity;BME280_pressure;Samples;Min_cycle;Max_cycle;Signal;HPM_P1;HPM_P2
2022/10/09 00:03:59;;;;;;;36.50;25.10;;;;;;;13.93;100.00;99615.22;4241827;82;21079;-87
2022/10/09 00:10:01;;;;;;;31.12;19.75;;;;;;;13.93;100.00;99622.11;4242796;82;21522;-86
2022/10/09 00:16:06;;;;;;;27.55;17.30;;;;;;;13.90;100.00;99613.81;4233636;82;21017;-86
2022/10/09 00:22:08;;;;;;;24.27;14.95;;;;;;;13.83;100.00;99609.05;4159268;84;21037;-87
2022/10/09 00:28:09;;;;;;;19.65;11.68;;;;;;;13.78;100.00;99629.26;4111501;85;21088;-86
2022/10/09 00:34:11;;;;;;;20.00;11.75;;;;;;;13.71;100.00;99644.31;4100053;85;21683;-86
2022/10/09 00:40:13;;;;;;;17.35;12.35;;;;;;;13.66;100.00;99635.03;4094858;85;21572;-86
2022/10/09 00:46:43;;;;;;;15.98;11.18;;;;;;;13.62;100.00;99650.15;4118293;85;21024;-86
2022/10/09 00:52:48;;;;;;;12.82;7.58;;;;;;;13.55;100.00;99652.82;4143766;84;20990;-86
2022/10/09 00:58:53;;;;;;;11.83;7.45;;;;;;;13.48;100.00;99658.84;4121009;85;21525;-86
2022/10/09 01:04:55;;;;;;;17.50;7.72;;;;;;;13.36;99.34;99672.87;4108395;85;20996;-86
2022/10/09 01:11:25;;;;;;;11.15;4.70;;;;;;;13.29;99.28;99669.45;4097230;85;21060;-86
2022/10/09 01:17:56;;;;;;;7.08;3.17;;;;;;;13.16;98.37;99678.31;4083828;86;21091;-85
2022/10/09 01:24:25;;;;;;;5.35;2.80;;;;;;;13.02;97.38;99679.52;4090667;85;21128;-88
2022/10/09 01:30:28;;;;;;;11.73;2.92;;;;;;;12.88;96.39;99675.20;4097767;85;21107;-86
2022/10/09 01:36:39;;;;;;;10.38;2.47;;;;;;;12.78;96.30;99687.63;4123213;84;21019;-86
2022/10/09 01:42:45;;;;;;;10.25;2.42;;;;;;;12.71;96.20;99693.62;4123832;84;21037;-85
2022/10/09 01:49:12;;;;;;;4.73;2.40;;;;;;;12.63;95.82;99698.23;4122473;84;21095;-85
2022/10/09 01:55:37;;;;;;;7.30;2.33;;;;;;;12.57;95.84;99697.74;4121314;84;22383;-85
2022/10/09 02:01:41;;;;;;;6.90;2.65;;;;;;;12.57;96.08;99714.83;4235601;82;21076;-85
2022/10/09 02:07:44;;;;;;;8.53;3.60;;;;;;;12.59;96.45;99718.00;4164161;84;21018;-85
2022/10/09 02:13:51;;;;;;;7.53;4.00;;;;;;;12.57;96.39;99727.19;4088456;85;21525;-85
2022/10/09 02:20:21;;;;;;;7.28;3.42;;;;;;;12.57;96.67;99729.93;4086305;85;21104;-85
2022/10/09 02:26:24;;;;;;;10.50;3.50;;;;;;;12.55;96.73;99734.42;4083669;85;21235;-86
2022/10/09 02:32:28;;;;;;;8.38;3.30;;;;;;;12.49;96.55;99736.48;4086810;85;21092;-86
2022/10/09 02:38:29;;;;;;;8.78;3.80;;;;;;;12.43;96.66;99754.44;4185604;82;21611;-85
2022/10/09 02:44:31;;;;;;;7.25;2.98;;;;;;;12.38;96.71;99755.54;4255151;82;21029;-86
2022/10/09 02:50:35;;;;;;;6.03;2.95;;;;;;;12.31;96.74;99765.02;4188583;84;21035;-86
2022/10/09 02:56:36;;;;;;;9.80;3.40;;;;;;;12.20;96.65;99764.66;4083160;85;21004;-85
2022/10/09 03:02:39;;;;;;;7.95;3.00;;;;;;;12.12;96.76;99779.41;4096796;85;21591;-86
2022/10/09 03:08:44;;;;;;;9.65;3.10;;;;;;;12.07;96.99;99782.45;4118797;84;21085;-86
2022/10/09 03:14:45;;;;;;;7.37;3.30;;;;;;;12.01;97.06;99787.44;4131162;84;21025;-85
2022/10/09 03:20:47;;;;;;;8.28;3.50;;;;;;;11.94;97.19;99803.79;4115525;84;21692;-85
2022/10/09 03:26:48;;;;;;;8.20;3.40;;;;;;;11.88;97.19;99811.30;4079151;85;21043;-85
2022/10/09 03:32:50;;;;;;;7.92;3.12;;;;;;;11.76;97.13;99816.36;4076756;85;21722;-87
2022/10/09 03:38:52;;;;;;;7.70;3.05;;;;;;;11.67;97.10;99816.37;4025555;85;27262;-85
2022/10/09 03:44:54;;;;;;;9.18;3.15;;;;;;;11.60;97.13;99826.61;4003192;88;21073;-85
2022/10/09 03:50:56;;;;;;;7.75;2.90;;;;;;;11.56;97.21;99831.81;4045429;87;21028;-86
2022/10/09 03:56:57;;;;;;;8.80;3.37;;;;;;;11.46;97.33;99826.89;4135601;85;21017;-85
2022/10/09 04:02:59;;;;;;;7.55;3.50;;;;;;;11.33;97.31;99830.91;4147865;85;21132;-85
2022/10/09 04:09:00;;;;;;;8.25;3.47;;;;;;;11.26;97.57;99839.00;4135326;85;21560;-85
2022/10/09 04:15:02;;;;;;;9.95;3.02;;;;;;;11.07;97.37;99839.77;4141905;85;21044;-85
2022/10/09 04:21:06;;;;;;;6.90;2.87;;;;;;;10.98;97.46;99849.55;4130901;85;22170;-85
2022/10/09 04:27:08;;;;;;;6.67;3.00;;;;;;;10.90;97.61;99854.64;4137305;85;21446;-85
2022/10/09 04:33:11;;;;;;;10.48;3.40;;;;;;;10.85;97.82;99858.23;4143390;85;21064;-85
2022/10/09 04:39:13;;;;;;;8.63;3.42;;;;;;;10.77;97.94;99868.80;4135271;85;21024;-85
2022/10/09 04:45:14;;;;;;;7.62;3.27;;;;;;;10.70;98.05;99872.16;4144578;85;21580;-85
2022/10/09 04:51:17;;;;;;;9.08;3.25;;;;;;;10.66;98.13;99883.61;4117389;85;21356;-85
2022/10/09 04:57:18;;;;;;;7.12;3.22;;;;;;;10.60;98.16;99886.97;4123207;85;21052;-84
2022/10/09 05:03:20;;;;;;;9.93;3.92;;;;;;;10.53;98.34;99902.63;4132501;85;21582;-85
2022/10/09 05:09:41;;;;;;;11.22;3.60;;;;;;;10.45;98.27;99906.34;4138682;85;22152;-85
2022/10/09 05:15:43;;;;;;;7.37;4.05;;;;;;;10.39;98.71;99910.48;4144961;85;21072;-86
2022/10/09 05:21:44;;;;;;;7.87;3.95;;;;;;;10.35;98.78;99910.17;4139184;85;21079;-85
2022/10/09 05:27:46;;;;;;;7.75;4.20;;;;;;;10.25;99.06;99914.78;4138403;85;21048;-85
2022/10/09 05:33:47;;;;;;;9.85;4.80;;;;;;;10.20;99.22;99920.50;4143530;84;21040;-85
2022/10/09 05:39:50;;;;;;;11.53;5.03;;;;;;;10.16;99.44;99927.83;4143614;85;20977;-85
2022/10/09 05:46:28;;;;;;;14.78;5.47;;;;;;;10.17;99.85;99942.52;4170048;85;21023;-85
2022/10/09 05:52:30;;;;;;;14.07;5.15;;;;;;;10.18;99.85;99960.52;4176170;85;21016;-85
2022/10/09 05:58:32;;;;;;;8.70;4.90;;;;;;;10.21;100.00;99972.73;4149391;85;21059;-85
2022/10/09 06:04:34;;;;;;;11.43;5.10;;;;;;;10.40;100.00;99984.59;4149671;85;21907;-85
2022/10/09 06:10:35;;;;;;;10.25;4.75;;;;;;;10.84;100.00;99986.73;4133843;85;21037;-85
2022/10/09 06:16:42;;;;;;;13.40;4.62;;;;;;;11.48;100.00;99993.22;4145795;85;21084;-86
2022/10/09 06:22:43;;;;;;;7.83;4.10;;;;;;;11.81;99.72;100001.81;4143910;85;21044;-86
2022/10/09 06:28:45;;;;;;;13.58;4.40;;;;;;;12.03;99.06;100007.98;4143220;85;21544;-85
2022/10/09 06:34:47;;;;;;;12.55;4.10;;;;;;;12.17;98.31;100014.56;4142697;85;21048;-86
2022/10/09 06:40:50;;;;;;;7.65;4.70;;;;;;;12.10;96.88;100021.30;4157492;84;21028;-85
2022/10/09 06:46:52;;;;;;;9.70;5.17;;;;;;;11.95;96.63;100030.36;4156156;85;21084;-86
2022/10/09 06:52:55;;;;;;;7.22;4.55;;;;;;;11.79;96.39;100035.09;4166408;85;21015;-86
2022/10/09 06:59:02;;;;;;;10.13;4.67;;;;;;;11.81;97.01;100046.51;4173220;85;21128;-86
2022/10/09 07:05:07;;;;;;;8.68;4.20;;;;;;;11.79;96.83;100048.80;4124675;85;21573;-86
2022/10/09 07:11:17;;;;;;;7.50;3.92;;;;;;;11.82;97.02;100061.03;4140248;85;21032;-85
2022/10/09 07:17:18;;;;;;;9.30;3.67;;;;;;;11.78;96.76;100054.66;4160550;84;21071;-86
2022/10/09 07:23:20;;;;;;;7.53;3.58;;;;;;;11.82;96.53;100057.72;4167129;85;21028;-85
2022/10/09 07:29:21;;;;;;;7.42;3.47;;;;;;;11.83;95.90;100062.05;4116244;85;21020;-86
2022/10/09 07:35:23;;;;;;;5.80;3.30;;;;;;;11.80;95.61;100064.70;4133647;85;21135;-87
2022/10/09 07:41:27;;;;;;;4.17;2.90;;;;;;;11.78;95.27;100080.71;4136116;85;21040;-86
2022/10/09 07:47:29;;;;;;;10.38;3.65;;;;;;;11.86;95.14;100082.47;4142517;85;21024;-87
2022/10/09 07:53:30;;;;;;;4.83;2.80;;;;;;;11.90;95.21;100088.85;4142762;84;21415;-86
2022/10/09 07:59:31;;;;;;;4.85;2.72;;;;;;;11.94;94.42;100086.97;4142627;85;21628;-86
2022/10/09 08:05:34;;;;;;;5.03;2.50;;;;;;;12.04;94.17;100085.06;4148656;85;21067;-86
2022/10/09 08:11:39;;;;;;;8.68;2.90;;;;;;;12.01;93.93;100090.66;4127957;85;21031;-86
2022/10/09 08:17:40;;;;;;;7.15;3.08;;;;;;;12.25;94.64;100092.38;4146616;85;21096;-85
2022/10/09 08:23:42;;;;;;;5.75;2.98;;;;;;;12.41;93.89;100102.73;4148037;84;21072;-86
2022/10/09 08:29:44;;;;;;;8.23;3.05;;;;;;;12.42;93.02;100104.30;4142524;85;21044;-86
2022/10/09 08:35:50;;;;;;;7.92;2.77;;;;;;;12.36;91.84;100105.75;4132385;85;20997;-86
2022/10/09 08:41:54;;;;;;;6.37;2.33;;;;;;;12.49;92.90;100109.97;4144734;85;21032;-86
2022/10/09 08:48:03;;;;;;;6.15;2.40;;;;;;;13.81;92.70;100120.49;4137355;85;21492;-86
2022/10/09 08:54:16;;;;;;;5.28;2.45;;;;;;;14.43;90.85;100124.59;4134021;85;21095;-85
2022/10/09 09:00:23;;;;;;;6.62;2.30;;;;;;;14.75;90.48;100120.27;4136454;84;21086;-86
2022/10/09 09:07:02;;;;;;;5.33;2.65;;;;;;;15.91;88.87;100120.06;4130379;85;21078;-86
2022/10/09 09:13:48;;;;;;;5.12;2.00;;;;;;;15.79;86.69;100114.86;4137466;85;21008;-86
2022/10/09 09:20:23;;;;;;;4.22;2.00;;;;;;;16.83;86.16;100118.08;4132567;85;21005;-86
2022/10/09 09:26:26;;;;;;;6.87;2.70;;;;;;;17.60;83.76;100114.71;4133009;85;21020;-86
2022/10/09 09:32:31;;;;;;;6.28;2.27;;;;;;;17.07;81.32;100116.55;4117086;85;21662;-86
2022/10/09 09:38:33;;;;;;;3.60;1.50;;;;;;;17.96;82.82;100107.18;4134279;85;21030;-87
2022/10/09 09:44:39;;;;;;;2.72;1.15;;;;;;;18.42;80.37;100114.23;4118501;85;21072;-87
2022/10/09 09:50:43;;;;;;;2.33;1.23;;;;;;;19.09;79.83;100111.78;4129945;85;21028;-85
2022/10/09 09:56:46;;;;;;;5.40;1.70;;;;;;;19.89;77.62;100111.81;4149115;85;20993;-86
2022/10/09 10:03:09;;;;;;;5.78;1.70;;;;;;;20.54;75.53;100106.02;4123905;85;21008;-86
2022/10/09 10:09:15;;;;;;;2.95;1.75;;;;;;;19.47;72.74;100105.20;4129991;85;21052;-85
2022/10/09 10:15:25;;;;;;;4.40;1.93;;;;;;;19.31;71.29;100102.17;4132700;85;21035;-86
2022/10/09 10:21:32;;;;;;;4.75;1.85;;;;;;;18.35;71.50;100110.05;4110163;85;21032;-85
2022/10/09 10:27:41;;;;;;;3.35;1.70;;;;;;;18.06;72.07;100102.20;4113379;84;21004;-85
2022/10/09 10:33:48;;;;;;;3.10;1.47;;;;;;;18.67;71.39;100094.14;4141318;85;21096;-83
2022/10/09 10:40:06;;;;;;;2.35;1.37;;;;;;;19.37;70.47;100083.88;4156148;84;21040;-86
2022/10/09 10:46:48;;;;;;;5.40;1.92;;;;;;;18.85;66.82;100100.20;4142923;85;21127;-85
2022/10/09 10:52:55;;;;;;;4.10;2.40;;;;;;;17.39;65.02;100100.00;4106727;84;21031;-85
2022/10/09 10:59:30;;;;;;;4.83;1.77;;;;;;;16.85;66.72;100090.80;4168434;85;21084;-85
2022/10/09 11:06:11;;;;;;;6.45;1.90;;;;;;;17.17;66.46;100089.50;4146504;83;21060;-85
2022/10/09 11:12:45;;;;;;;5.03;2.15;;;;;;;17.28;66.36;100095.84;4133612;84;21463;-84
2022/10/09 11:18:56;;;;;;;4.60;2.30;;;;;;;16.71;65.73;100090.75;4127040;85;21619;-85
2022/10/09 11:25:39;;;;;;;4.30;2.30;;;;;;;16.47;65.12;100090.66;4114539;85;21000;-84
2022/10/09 11:31:58;;;;;;;7.70;1.90;;;;;;;15.99;64.42;100083.04;4119061;85;21060;-85
2022/10/09 11:38:08;;;;;;;4.12;1.60;;;;;;;15.63;64.38;100083.95;4100584;85;21977;-84
2022/10/09 11:45:04;;;;;;;5.37;2.02;;;;;;;15.73;64.22;100069.45;4029364;87;21000;-84
2022/10/09 11:51:35;;;;;;;5.75;2.22;;;;;;;15.53;63.51;100073.03;4051199;87;21080;-84
2022/10/09 11:57:36;;;;;;;5.00;2.10;;;;;;;15.20;64.08;100080.59;4031918;87;21886;-84
2022/10/09 12:03:39;;;;;;;5.80;2.30;;;;;;;15.06;64.86;100073.56;4025742;87;21019;-84
2022/10/09 12:09:46;;;;;;;5.35;2.22;;;;;;;15.06;64.91;100061.16;4027600;87;21032;-84
2022/10/09 12:15:53;;;;;;;5.60;2.30;;;;;;;14.98;65.28;100056.73;4079579;87;21012;-84
2022/10/09 12:22:20;;;;;;;4.75;2.15;;;;;;;15.01;65.02;100049.09;4073993;87;21005;-84
2022/10/09 12:28:54;;;;;;;5.95;2.70;;;;;;;15.15;64.24;100039.57;4060481;87;21016;-84
2022/10/09 12:34:57;;;;;;;5.65;2.40;;;;;;;15.10;63.72;100039.91;4087857;87;21016;-84
2022/10/09 12:41:13;;;;;;;8.28;2.80;;;;;;;14.81;63.08;100041.61;4088519;87;21063;-83
2022/10/09 12:47:21;;;;;;;6.25;2.40;;;;;;;14.82;63.58;100039.63;4036080;87;21032;-84
2022/10/09 12:53:27;;;;;;;6.05;2.12;;;;;;;14.86;63.24;100037.72;4034898;87;21529;-85
2022/10/09 12:59:30;;;;;;;7.70;2.30;;;;;;;14.87;62.83;100035.96;4037406;87;20980;-84
2022/10/09 13:05:40;;;;;;;5.87;2.55;;;;;;;14.85;62.54;100034.16;4042633;86;21019;-84
2022/10/09 13:11:44;;;;;;;3.22;2.30;;;;;;;14.91;62.79;100040.91;4062434;87;21504;-84
2022/10/09 13:17:46;;;;;;;5.17;2.25;;;;;;;14.81;62.61;100040.23;4049326;87;21079;-84
2022/10/09 13:23:47;;;;;;;4.47;2.47;;;;;;;14.63;63.12;100033.72;4083766;87;21062;-84
2022/10/09 13:29:49;;;;;;;6.05;2.25;;;;;;;14.49;63.07;100038.27;4052033;87;22311;-85
2022/10/09 13:35:50;;;;;;;4.25;2.00;;;;;;;14.38;63.64;100040.09;4044826;85;21577;-84
2022/10/09 13:41:54;;;;;;;5.10;2.15;;;;;;;14.26;64.05;100043.91;4045744;87;21056;-84
2022/10/09 13:47:55;;;;;;;3.33;2.10;;;;;;;14.23;65.06;100034.38;4051226;87;21043;-84
2022/10/09 13:53:57;;;;;;;7.40;2.40;;;;;;;14.15;65.12;100034.10;4037382;87;21024;-84
2022/10/09 13:59:59;;;;;;;6.80;2.95;;;;;;;14.27;66.28;100025.42;4037612;86;21512;-84
2022/10/09 14:06:02;;;;;;;7.05;2.22;;;;;;;14.36;65.79;100021.19;4038545;86;22034;-83
2022/10/09 14:12:05;;;;;;;1.95;1.10;;;;;;;14.43;64.80;100021.29;4036783;86;21469;-84
2022/10/09 14:18:07;;;;;;;5.20;1.57;;;;;;;14.44;62.95;100017.36;4041172;87;21028;-84
2022/10/09 14:24:09;;;;;;;5.22;1.60;;;;;;;14.49;63.13;100007.39;4063231;87;21973;-84
2022/10/09 14:30:11;;;;;;;2.80;1.45;;;;;;;14.48;63.98;100015.45;4040407;87;21161;-83
2022/10/09 14:36:17;;;;;;;3.77;1.77;;;;;;;14.46;62.92;100008.71;4041657;84;21033;-85
2022/10/09 14:42:18;;;;;;;3.22;1.40;;;;;;;14.42;63.45;100004.56;4047983;87;21680;-84
2022/10/09 14:48:20;;;;;;;2.10;1.47;;;;;;;14.30;62.73;100006.17;4042341;87;21580;-83
2022/10/09 14:54:21;;;;;;;4.50;1.37;;;;;;;14.28;63.21;100007.16;4076603;87;22023;-84
2022/10/09 15:00:23;;;;;;;1.80;1.07;;;;;;;14.23;63.00;100005.27;4053078;87;21040;-84
2022/10/09 15:06:24;;;;;;;3.95;1.02;;;;;;;14.15;63.60;100004.39;4052655;87;21095;-84
2022/10/09 15:12:26;;;;;;;3.87;1.20;;;;;;;13.98;64.09;100001.59;4057272;87;21012;-84
2022/10/09 15:18:28;;;;;;;3.52;1.40;;;;;;;13.74;63.56;99999.89;4055636;87;21135;-84
2022/10/09 15:24:29;;;;;;;5.03;1.40;;;;;;;13.51;63.73;99986.78;4055094;87;21023;-85
2022/10/09 15:30:31;;;;;;;2.75;1.20;;;;;;;13.33;64.52;99998.88;4049189;87;21031;-84
2022/10/09 15:36:36;;;;;;;4.60;1.30;;;;;;;13.20;64.44;99999.45;4062771;85;21111;-84
2022/10/09 15:42:40;;;;;;;4.20;1.40;;;;;;;13.06;65.00;100002.74;4132945;84;21029;-84
2022/10/09 15:48:43;;;;;;;3.17;1.17;;;;;;;12.93;65.66;100000.52;4137426;85;21067;-83
2022/10/09 15:54:45;;;;;;;3.55;1.55;;;;;;;12.67;65.70;100002.59;4134260;85;21120;-83
2022/10/09 16:00:48;;;;;;;7.08;2.67;;;;;;;12.38;66.81;99998.54;4135974;85;21047;-83
2022/10/09 16:06:50;;;;;;;30.32;18.00;;;;;;;12.12;67.64;99998.98;4123846;85;21534;-83
2022/10/09 16:12:51;;;;;;;10.72;6.08;;;;;;;11.89;68.42;100003.56;4167992;85;22132;-83
2022/10/09 16:18:53;;;;;;;7.00;3.47;;;;;;;11.69;69.05;99991.77;4144114;85;21008;-83
2022/10/09 16:24:55;;;;;;;10.40;6.28;;;;;;;11.45;69.52;100010.37;4140881;85;21549;-83
2022/10/09 16:30:57;;;;;;;5.75;3.52;;;;;;;11.18;70.22;100022.24;4168646;85;20985;-82
2022/10/09 16:37:01;;;;;;;9.78;3.77;;;;;;;10.94;70.83;100023.20;4175605;85;21544;-86
2022/10/09 16:43:02;;;;;;;8.30;2.75;;;;;;;10.66;72.40;100032.05;4014341;88;21982;-85
2022/10/09 16:49:04;;;;;;;8.73;4.62;;;;;;;10.28;72.80;100032.55;4110959;85;21095;-84
2022/10/09 16:55:06;;;;;;;9.35;4.53;;;;;;;9.91;73.86;100034.34;4090645;85;21128;-84
2022/10/09 17:01:09;;;;;;;17.75;8.65;;;;;;;9.86;74.75;100035.94;4104379;85;21073;-83
2022/10/09 17:07:12;;;;;;;22.07;11.53;;;;;;;9.72;74.76;100037.69;4128114;85;21096;-84
2022/10/09 17:13:13;;;;;;;21.17;10.88;;;;;;;9.57;75.24;100046.56;4149938;85;21039;-84
2022/10/09 17:19:15;;;;;;;14.05;6.85;;;;;;;9.38;75.69;100051.23;4116283;85;21036;-83
2022/10/09 17:25:17;;;;;;;20.08;9.83;;;;;;;9.18;76.99;100049.41;4163029;85;21055;-84
2022/10/09 17:31:22;;;;;;;21.40;10.45;;;;;;;9.10;77.45;100057.14;4105025;84;21084;-84
2022/10/09 17:37:25;;;;;;;25.88;11.48;;;;;;;8.93;77.73;100061.99;4141208;85;22057;-84
2022/10/09 17:43:27;;;;;;;24.20;12.58;;;;;;;8.78;78.38;100062.65;4155697;85;20999;-84
2022/10/09 17:49:29;;;;;;;20.97;10.40;;;;;;;8.63;78.82;100062.71;4021724;85;10000506;-85
2022/10/09 17:55:30;;;;;;;22.02;11.48;;;;;;;8.61;80.29;100069.66;4130994;85;21116;-84
2022/10/09 18:01:32;;;;;;;18.90;10.40;;;;;;;8.49;80.43;100068.25;4097344;85;21024;-84
2022/10/09 18:07:33;;;;;;;25.88;12.90;;;;;;;8.41;80.61;100073.98;4100930;85;21869;-84
2022/10/09 18:13:38;;;;;;;28.55;12.90;;;;;;;8.28;80.40;100073.72;4142815;85;21056;-84
2022/10/09 18:19:40;;;;;;;24.15;11.68;;;;;;;8.13;80.81;100074.27;4128396;85;21075;-85
2022/10/09 18:25:43;;;;;;;23.98;12.85;;;;;;;7.92;81.13;100078.94;4133862;85;21071;-84
2022/10/09 18:31:54;;;;;;;27.17;15.15;;;;;;;7.65;81.46;100082.95;4144447;85;21072;-84
2022/10/09 18:37:52;;;;;;;28.15;15.05;;;;;;;7.53;82.08;100083.41;4112724;84;21024;-84
2022/10/09 18:43:54;;;;;;;28.25;14.73;;;;;;;7.41;82.36;100090.11;4103914;84;21012;-84
2022/10/09 18:49:59;;;;;;;24.70;14.23;;;;;;;7.26;82.89;100099.64;4106423;85;21048;-84
2022/10/09 18:56:00;;;;;;;28.73;15.18;;;;;;;7.18;83.13;100098.30;4105225;85;21032;-84
2022/10/09 19:02:02;;;;;;;31.55;17.87;;;;;;;7.10;83.25;100095.84;4132689;85;21076;-86
2022/10/09 19:08:03;;;;;;;29.90;18.02;;;;;;;7.09;83.44;100107.06;4119677;84;21155;-84
2022/10/09 19:14:05;;;;;;;28.23;16.15;;;;;;;6.98;83.86;100113.98;4154000;85;21008;-83
2022/10/09 19:20:07;;;;;;;24.65;14.33;;;;;;;6.90;84.34;100104.71;4135084;85;21917;-84
2022/10/09 19:26:12;;;;;;;21.52;12.47;;;;;;;6.87;84.82;100101.83;4134662;85;22305;-86
2022/10/09 19:32:17;;;;;;;35.05;18.17;;;;;;;6.71;84.46;100105.63;4135015;85;21111;-83
2022/10/09 19:38:18;;;;;;;27.17;12.53;;;;;;;6.32;84.57;100113.97;4037520;87;21094;-84
2022/10/09 19:44:20;;;;;;;24.35;13.53;;;;;;;6.44;85.91;100116.06;4012603;88;21030;-83
2022/10/09 19:50:21;;;;;;;23.10;13.48;;;;;;;6.24;85.14;100113.41;3991872;87;21496;-83
2022/10/09 19:56:26;;;;;;;21.37;10.55;;;;;;;6.19;85.49;100117.08;4165054;85;21075;-84
2022/10/09 20:02:28;;;;;;;22.25;13.40;;;;;;;6.04;85.68;100114.03;4133995;85;21604;-83
2022/10/09 20:08:31;;;;;;;21.42;13.90;;;;;;;5.94;86.03;100117.84;4135534;85;21146;-83
2022/10/09 20:14:32;;;;;;;23.30;13.85;;;;;;;5.90;86.46;100118.80;4140272;85;21013;-83
2022/10/09 20:20:34;;;;;;;28.55;16.23;;;;;;;5.61;85.81;100117.97;4135267;85;21554;-84
2022/10/09 20:26:36;;;;;;;24.45;15.18;;;;;;;5.38;86.24;100118.36;4134634;85;21040;-84
2022/10/09 20:32:37;;;;;;;23.35;13.50;;;;;;;5.39;88.42;100126.74;4134305;85;22294;-84
2022/10/09 20:38:38;;;;;;;25.30;14.50;;;;;;;5.50;87.55;100125.34;4122765;84;21527;-84
2022/10/09 20:44:41;;;;;;;24.98;13.80;;;;;;;5.47;87.71;100121.36;4054997;87;21039;-83
2022/10/09 20:50:42;;;;;;;25.27;15.60;;;;;;;5.45;87.56;100124.16;4055663;86;21123;-84
2022/10/09 20:56:46;;;;;;;24.12;15.63;;;;;;;5.27;87.62;100118.39;4057095;87;21067;-83
2022/10/09 21:02:48;;;;;;;30.25;17.15;;;;;;;5.11;87.90;100113.93;4048151;87;21099;-83
2022/10/09 21:08:50;;;;;;;27.42;13.88;;;;;;;5.08;88.03;100115.91;4054199;86;21039;-83
2022/10/09 21:14:52;;;;;;;33.08;15.78;;;;;;;4.96;88.09;100112.17;4061628;87;22279;-83
2022/10/09 21:20:53;;;;;;;31.70;20.20;;;;;;;4.89;88.61;100118.61;4057696;87;21532;-83
2022/10/09 21:26:54;;;;;;;35.45;18.80;;;;;;;4.85;88.67;100121.14;4058244;87;21047;-83
2022/10/09 21:32:56;;;;;;;31.85;18.15;;;;;;;4.77;88.72;100113.74;4047154;87;21087;-83
2022/10/09 21:38:57;;;;;;;29.42;14.98;;;;;;;4.79;89.71;100109.59;4055761;85;22330;-84
2022/10/09 21:44:59;;;;;;;25.55;15.50;;;;;;;5.02;90.29;100105.50;4063402;87;21039;-83
2022/10/09 21:51:00;;;;;;;34.90;17.12;;;;;;;4.90;90.33;100107.45;4048996;87;21595;-83
2022/10/09 21:57:02;;;;;;;29.40;16.82;;;;;;;4.88;89.56;100107.49;4083913;87;21056;-83
2022/10/09 22:03:03;;;;;;;24.47;14.93;;;;;;;4.77;89.36;100115.09;4059137;87;21719;-83
2022/10/09 22:09:04;;;;;;;28.10;15.18;;;;;;;4.65;89.38;100110.80;4051667;87;21111;-83
2022/10/09 22:15:07;;;;;;;24.05;15.45;;;;;;;4.42;89.38;100103.75;4059708;87;20999;-83
2022/10/09 22:21:13;;;;;;;28.52;14.35;;;;;;;4.27;89.36;100096.80;4052536;87;21012;-83
2022/10/09 22:27:14;;;;;;;18.02;9.55;;;;;;;3.97;88.82;100095.32;4049508;87;21067;-83
2022/10/09 22:33:15;;;;;;;26.02;13.00;;;;;;;3.76;90.01;100107.72;4053892;87;21997;-83
2022/10/09 22:39:17;;;;;;;24.20;12.18;;;;;;;3.84;90.81;100103.72;4040983;85;21005;-83
2022/10/09 22:45:18;;;;;;;19.62;12.28;;;;;;;3.78;90.38;100099.53;4137558;85;20965;-83
2022/10/09 22:51:23;;;;;;;23.57;12.85;;;;;;;3.81;91.18;100096.75;4176125;85;20981;-83
2022/10/09 22:57:24;;;;;;;18.85;11.78;;;;;;;3.92;91.81;100098.14;4149096;85;21049;-83
2022/10/09 23:03:25;;;;;;;22.22;11.68;;;;;;;4.00;92.03;100096.06;4175658;85;21012;-83
2022/10/09 23:09:30;;;;;;;22.55;12.50;;;;;;;4.05;92.58;100086.47;4180664;85;21028;-83
2022/10/09 23:15:36;;;;;;;18.98;9.78;;;;;;;4.14;92.63;100098.18;4149937;85;21095;-83
2022/10/09 23:21:40;;;;;;;19.82;10.78;;;;;;;4.13;91.91;100096.05;4167172;85;21349;-83
2022/10/09 23:27:41;;;;;;;18.62;9.58;;;;;;;4.11;92.94;100095.54;4150052;85;21080;-83
2022/10/09 23:33:44;;;;;;;15.90;11.35;;;;;;;4.17;93.47;100097.02;4146503;85;21024;-85
2022/10/09 23:39:45;;;;;;;16.87;11.30;;;;;;;4.14;92.66;100097.64;4149543;85;21067;-83
2022/10/09 23:45:47;;;;;;;17.73;10.95;;;;;;;4.02;92.61;100098.73;4142936;85;21051;-83
2022/10/09 23:51:48;;;;;;;21.52;11.60;;;;;;;3.93;93.18;100093.77;4149126;85;21183;-83
2022/10/09 23:57:50;;;;;;;19.65;11.22;;;;;;;3.90;93.02;100089.53;4145930;85;21099;-82
